Time;durP1;ratioP1;P1;durP2;ratioP2;P2;SDS_P1;SDS_P2;PMS_P1;PMS_P2;Temp;Humidity;BMP_temperature;BMP_pressure;BME280_temperature;BME280_humidity;BME280_pressure;Samples;Min_cycle;Max_cycle;Signal;HPM_P1;HPM_P2
2021/06/16 00:01:38;;;;;;;6.83;5.53;;;17.60;98.30;;;;;;5101849;23;20426;-82
2021/06/16 00:03:41;;;;;;;6.40;4.60;;;17.60;98.30;;;;;;5116910;23;20422;-82
2021/06/16 00:05:44;;;;;;;9.47;4.67;;;17.50;98.30;;;;;;5115702;23;20429;-83
2021/06/16 00:07:47;;;;;;;6.20;4.60;;;17.50;98.30;;;;;;5134429;23;21097;-82
2021/06/16 00:09:50;;;;;;;9.30;4.00;;;17.50;98.30;;;;;;5123937;23;21192;-83
2021/06/16 00:11:53;;;;;;;6.90;4.80;;;17.40;98.30;;;;;;5116395;23;20488;-82
2021/06/16 00:13:56;;;;;;;5.87;4.53;;;17.40;98.30;;;;;;5116881;23;20546;-82
2021/06/16 00:16:01;;;;;;;5.93;4.27;;;17.40;98.30;;;;;;5116618;23;20430;-81
2021/06/16 00:18:05;;;;;;;4.70;4.10;;;17.40;98.30;;;;;;5123223;23;20478;-82
2021/06/16 00:20:09;;;;;;;7.33;4.40;;;17.30;98.30;;;;;;5116944;23;20438;-82
2021/06/16 00:22:13;;;;;;;6.63;5.50;;;17.30;98.30;;;;;;5116117;23;20448;-83
2021/06/16 00:24:19;;;;;;;6.47;4.57;;;17.30;98.30;;;;;;5124183;23;20449;-82
2021/06/16 00:26:22;;;;;;;10.17;5.63;;;17.30;98.30;;;;;;5123803;23;20432;-82
2021/06/16 00:28:46;;;;;;;15.30;11.10;;;17.40;98.30;;;;;;5115274;23;20535;-82
2021/06/16 00:30:49;;;;;;;11.17;8.27;;;17.40;98.30;;;;;;5114802;23;20440;-82
2021/06/16 00:32:54;;;;;;;6.67;5.57;;;17.30;98.30;;;;;;5115788;23;21000;-82
2021/06/16 00:34:57;;;;;;;7.77;5.20;;;17.20;98.30;;;;;;5123715;23;20450;-82
2021/06/16 00:37:00;;;;;;;6.40;5.47;;;17.10;98.30;;;;;;5123882;23;20476;-82
2021/06/16 00:39:06;;;;;;;24.03;17.47;;;17.20;98.30;;;;;;5123721;23;20420;-83
2021/06/16 00:41:09;;;;;;;13.43;7.13;;;17.10;98.30;;;;;;5123948;23;21324;-82
2021/06/16 00:43:12;;;;;;;8.97;6.40;;;16.90;98.30;;;;;;5123755;23;20957;-81
2021/06/16 00:45:17;;;;;;;10.57;8.87;;;16.90;98.30;;;;;;5126016;23;20768;-81
2021/06/16 00:47:20;;;;;;;15.10;8.50;;;16.90;98.30;;;;;;5123946;23;20533;-81
2021/06/16 00:49:24;;;;;;;9.47;7.30;;;16.90;98.30;;;;;;5115080;23;20469;-82
2021/06/16 00:51:27;;;;;;;11.83;8.53;;;16.90;98.30;;;;;;5115637;23;20430;-82
2021/06/16 00:53:30;;;;;;;24.27;15.23;;;16.90;98.30;;;;;;5116417;23;20457;-82
2021/06/16 00:55:37;;;;;;;41.07;29.33;;;17.00;98.30;;;;;;5123400;23;20509;-82
2021/06/16 00:57:40;;;;;;;27.47;20.17;;;17.00;98.30;;;;;;5115671;23;20537;-82
2021/06/16 00:59:51;;;;;;;23.63;14.40;;;17.10;98.30;;;;;;5123834;23;20928;-82
2021/06/16 01:01:55;;;;;;;18.30;12.93;;;17.10;98.30;;;;;;5124226;23;20428;-83
2021/06/16 01:04:03;;;;;;;20.63;15.60;;;17.00;98.30;;;;;;5115908;23;20437;-83
2021/06/16 01:06:13;;;;;;;39.43;26.70;;;17.00;98.30;;;;;;5115799;23;21083;-85
2021/06/16 01:08:22;;;;;;;14.40;11.30;;;17.00;98.30;;;;;;5114913;23;20454;-84
2021/06/16 01:10:26;;;;;;;15.80;12.17;;;16.90;98.30;;;;;;5115867;23;20420;-83
2021/06/16 01:12:41;;;;;;;13.10;10.20;;;16.90;98.30;;;;;;5115656;23;20448;-84
2021/06/16 01:14:50;;;;;;;14.40;9.30;;;16.80;98.30;;;;;;5115819;23;20434;-84
2021/06/16 01:16:57;;;;;;;12.03;9.30;;;16.80;98.30;;;;;;5115499;23;20733;-84
2021/06/16 01:19:19;;;;;;;13.33;10.40;;;16.80;98.30;;;;;;5115825;23;20506;-84
2021/06/16 01:21:25;;;;;;;8.73;7.23;;;16.80;98.30;;;;;;5123334;23;20418;-84
2021/06/16 01:23:49;;;;;;;7.47;6.50;;;16.70;98.30;;;;;;5123601;23;20872;-84
2021/06/16 01:26:17;;;;;;;12.73;8.93;;;16.80;98.30;;;;;;5116214;23;20494;-83
2021/06/16 01:28:23;;;;;;;13.70;8.07;;;16.70;98.30;;;;;;5115192;23;20473;-84
2021/06/16 01:30:31;;;;;;;8.50;7.60;;;16.70;98.30;;;;;;5123379;23;20918;-84
2021/06/16 01:32:36;;;;;;;11.30;7.47;;;16.70;98.30;;;;;;5123941;23;20440;-84
2021/06/16 01:34:39;;;;;;;7.27;5.70;;;16.70;98.30;;;;;;5123875;23;20445;-84
2021/06/16 01:36:45;;;;;;;7.77;5.10;;;16.60;98.30;;;;;;5115764;23;20517;-84
2021/06/16 01:38:48;;;;;;;8.23;5.93;;;16.60;98.30;;;;;;5115360;23;20808;-84
2021/06/16 01:40:55;;;;;;;8.07;5.93;;;16.60;98.30;;;;;;5115758;23;20426;-83
2021/06/16 01:43:01;;;;;;;6.60;5.43;;;16.60;98.30;;;;;;5123472;23;20497;-83
2021/06/16 01:45:05;;;;;;;7.63;5.40;;;16.70;98.30;;;;;;5124070;23;20405;-84
2021/06/16 01:47:09;;;;;;;6.60;5.70;;;16.70;98.30;;;;;;5123867;23;20954;-84
2021/06/16 01:49:13;;;;;;;5.73;4.87;;;16.70;98.30;;;;;;5124262;23;20424;-84
2021/06/16 01:51:17;;;;;;;8.60;4.93;;;16.70;98.30;;;;;;5116246;23;20509;-83
2021/06/16 01:53:20;;;;;;;7.00;5.17;;;16.60;98.30;;;;;;5123995;23;20482;-84
2021/06/16 01:55:24;;;;;;;10.23;4.73;;;16.60;98.30;;;;;;5123732;23;20730;-84
2021/06/16 01:57:27;;;;;;;12.23;6.20;;;16.60;98.30;;;;;;5115049;23;20445;-84
2021/06/16 01:59:36;;;;;;;8.33;4.57;;;16.60;98.30;;;;;;5115498;23;20508;-84
2021/06/16 02:01:39;;;;;;;5.90;4.73;;;16.60;98.30;;;;;;5123814;23;20417;-84
2021/06/16 02:03:42;;;;;;;11.87;5.30;;;16.60;98.30;;;;;;5115659;23;20426;-83
2021/06/16 02:05:45;;;;;;;6.50;4.53;;;16.50;98.30;;;;;;5115881;23;20433;-84
2021/06/16 02:07:53;;;;;;;5.77;5.00;;;16.50;98.30;;;;;;5115723;23;20533;-84
2021/06/16 02:09:58;;;;;;;7.00;5.23;;;16.50;98.30;;;;;;5129059;23;20445;-84
2021/06/16 02:12:02;;;;;;;7.17;4.37;;;16.50;98.30;;;;;;5121773;23;20438;-84
2021/06/16 02:14:11;;;;;;;11.00;5.57;;;16.50;98.30;;;;;;5129817;23;20449;-84
2021/06/16 02:16:19;;;;;;;5.33;4.30;;;16.40;98.30;;;;;;5130103;23;20974;-83
2021/06/16 02:18:28;;;;;;;7.63;4.53;;;16.40;98.30;;;;;;5129830;23;20477;-85
2021/06/16 02:20:31;;;;;;;5.30;4.83;;;16.40;98.30;;;;;;5124232;23;20524;-84
2021/06/16 02:22:37;;;;;;;10.00;5.07;;;16.40;98.30;;;;;;5124661;23;20430;-84
2021/06/16 02:24:41;;;;;;;5.90;4.50;;;16.40;98.30;;;;;;5124717;23;20429;-84
2021/06/16 02:26:44;;;;;;;9.43;5.00;;;16.40;98.30;;;;;;5116325;23;20811;-84
2021/06/16 02:28:47;;;;;;;5.67;4.27;;;16.40;98.30;;;;;;5116267;23;20437;-84
2021/06/16 02:30:50;;;;;;;7.40;5.00;;;16.40;98.30;;;;;;5126286;23;20446;-83
2021/06/16 02:32:57;;;;;;;6.83;5.30;;;16.40;98.30;;;;;;5127062;23;20449;-84
2021/06/16 02:35:01;;;;;;;10.27;6.90;;;16.40;98.30;;;;;;5127300;23;20481;-84
2021/06/16 02:37:07;;;;;;;9.10;6.70;;;16.50;98.30;;;;;;5135231;23;20438;-84
2021/06/16 02:39:14;;;;;;;19.23;12.90;;;16.40;98.30;;;;;;5133147;23;20855;-84
2021/06/16 02:41:17;;;;;;;23.27;15.93;;;16.30;98.30;;;;;;5133324;23;20426;-83
2021/06/16 02:43:22;;;;;;;18.63;10.60;;;16.30;98.30;;;;;;5141103;23;20449;-83
2021/06/16 02:45:26;;;;;;;21.27;16.60;;;16.10;98.30;;;;;;5141969;23;20606;-84
2021/06/16 02:47:33;;;;;;;18.87;14.60;;;16.10;98.30;;;;;;5131665;23;20987;-83
2021/06/16 02:49:42;;;;;;;14.67;12.57;;;16.10;98.30;;;;;;5138467;23;20433;-83
2021/06/16 02:51:46;;;;;;;12.03;8.93;;;16.10;98.30;;;;;;5124345;23;20429;-85
2021/06/16 02:53:50;;;;;;;13.73;8.53;;;16.00;98.30;;;;;;5115742;23;20978;-84
2021/06/16 02:55:56;;;;;;;8.37;7.27;;;16.00;98.30;;;;;;5125547;23;20500;-83
2021/06/16 02:58:00;;;;;;;10.37;7.37;;;16.10;98.30;;;;;;5124707;23;20513;-83
2021/06/16 03:00:06;;;;;;;11.60;9.27;;;16.10;98.30;;;;;;5124626;23;20798;-82
2021/06/16 03:02:11;;;;;;;11.50;8.63;;;16.10;98.30;;;;;;5126203;23;20417;-82
2021/06/16 03:04:15;;;;;;;9.60;7.50;;;16.10;98.30;;;;;;5116576;23;20430;-82
2021/06/16 03:06:21;;;;;;;13.17;8.77;;;16.10;98.30;;;;;;5117210;23;20979;-81
2021/06/16 03:08:27;;;;;;;12.77;8.30;;;16.10;98.30;;;;;;5116513;23;20457;-82
2021/06/16 03:10:35;;;;;;;12.70;7.47;;;16.10;98.30;;;;;;5124768;23;20405;-82
2021/06/16 03:12:40;;;;;;;10.03;7.00;;;16.00;98.30;;;;;;5124452;23;20437;-81
2021/06/16 03:14:43;;;;;;;12.43;8.00;;;15.90;98.30;;;;;;5125687;23;20845;-82
2021/06/16 03:16:46;;;;;;;9.20;6.77;;;15.80;98.30;;;;;;5124527;23;20414;-82
2021/06/16 03:18:50;;;;;;;9.97;7.60;;;15.70;98.30;;;;;;5116742;23;20452;-82
2021/06/16 03:20:57;;;;;;;7.73;6.80;;;15.70;98.30;;;;;;5125489;23;20776;-81
2021/06/16 03:23:02;;;;;;;8.23;7.10;;;15.70;98.30;;;;;;5124451;23;20449;-82
2021/06/16 03:25:19;;;;;;;8.53;7.17;;;15.60;98.30;;;;;;5116599;23;20719;-82
2021/06/16 03:27:25;;;;;;;7.93;6.40;;;15.60;98.30;;;;;;5123051;23;20450;-82
2021/06/16 03:29:28;;;;;;;9.87;6.80;;;15.70;98.30;;;;;;5116028;23;20467;-82
2021/06/16 03:31:32;;;;;;;14.07;6.70;;;15.70;98.30;;;;;;5126419;23;20995;-81
2021/06/16 03:33:35;;;;;;;10.50;7.40;;;15.60;98.30;;;;;;5126863;23;20426;-82
2021/06/16 03:35:38;;;;;;;7.27;6.43;;;15.60;98.30;;;;;;5115738;23;20449;-82
2021/06/16 03:37:42;;;;;;;7.43;6.50;;;15.30;98.30;;;;;;5127720;23;20465;-82
2021/06/16 03:39:51;;;;;;;9.60;6.10;;;15.10;98.30;;;;;;5124863;23;20445;-82
2021/06/16 03:41:54;;;;;;;8.97;6.70;;;15.00;98.30;;;;;;5118817;23;20444;-81
2021/06/16 03:43:58;;;;;;;10.07;6.27;;;14.80;98.30;;;;;;5116782;23;20461;-82
2021/06/16 03:46:06;;;;;;;9.90;6.30;;;14.70;98.30;;;;;;5126751;23;20509;-81
2021/06/16 03:48:11;;;;;;;6.93;6.13;;;14.60;98.30;;;;;;5116403;23;20445;-82
2021/06/16 03:50:17;;;;;;;6.90;6.20;;;14.60;98.30;;;;;;5124695;23;20949;-81
2021/06/16 03:52:28;;;;;;;8.60;6.33;;;14.60;98.30;;;;;;5126691;23;20433;-82
2021/06/16 03:54:32;;;;;;;6.80;5.60;;;14.50;98.30;;;;;;5116123;23;20448;-82
2021/06/16 03:56:55;;;;;;;7.93;5.53;;;14.70;98.30;;;;;;5118602;23;20453;-81
2021/06/16 03:58:59;;;;;;;11.00;5.90;;;14.60;98.30;;;;;;5116258;23;20414;-81
2021/06/16 04:01:02;;;;;;;7.33;5.97;;;14.60;98.30;;;;;;5124742;23;20425;-81
2021/06/16 04:03:07;;;;;;;6.40;5.13;;;14.60;98.30;;;;;;5124745;23;20428;-82
2021/06/16 04:05:11;;;;;;;7.33;4.73;;;14.70;98.30;;;;;;5124610;23;20409;-82
2021/06/16 04:07:16;;;;;;;6.57;5.70;;;14.70;98.30;;;;;;5120540;23;20474;-82
2021/06/16 04:09:20;;;;;;;6.83;5.17;;;14.70;98.30;;;;;;5116026;23;20458;-83
2021/06/16 04:11:24;;;;;;;6.57;4.17;;;14.80;98.30;;;;;;5116351;23;20504;-83
2021/06/16 04:13:28;;;;;;;6.83;4.20;;;14.80;98.30;;;;;;5124543;23;20454;-83
2021/06/16 04:15:31;;;;;;;6.27;4.73;;;14.80;98.30;;;;;;5124685;23;20531;-82
2021/06/16 04:17:34;;;;;;;7.97;4.83;;;14.80;98.30;;;;;;5115671;23;20974;-83
2021/06/16 04:19:38;;;;;;;5.43;4.70;;;14.80;98.30;;;;;;5124304;23;20476;-82
2021/06/16 04:21:42;;;;;;;6.17;5.10;;;14.90;98.30;;;;;;5116528;23;20444;-82
2021/06/16 04:23:46;;;;;;;6.30;4.93;;;14.80;98.30;;;;;;5124675;23;20969;-83
2021/06/16 04:25:49;;;;;;;9.70;5.10;;;14.80;98.30;;;;;;5124671;23;20418;-83
2021/06/16 04:27:53;;;;;;;8.97;5.27;;;14.80;98.30;;;;;;5115973;23;20450;-83
2021/06/16 04:29:57;;;;;;;9.70;5.10;;;14.80;98.30;;;;;;5116182;23;20430;-82
2021/06/16 04:32:00;;;;;;;9.83;5.03;;;14.80;98.30;;;;;;5116504;23;20429;-83
2021/06/16 04:34:06;;;;;;;10.80;5.23;;;14.80;98.30;;;;;;5116443;23;21101;-82
2021/06/16 04:36:09;;;;;;;7.93;5.03;;;14.80;98.30;;;;;;5124225;23;20537;-83
2021/06/16 04:38:12;;;;;;;11.60;5.33;;;14.80;98.30;;;;;;5123688;23;20434;-83
2021/06/16 04:40:15;;;;;;;6.60;4.80;;;14.90;98.30;;;;;;5116276;23;20426;-82
2021/06/16 04:42:19;;;;;;;7.67;4.53;;;14.80;98.30;;;;;;5116622;23;20434;-83
2021/06/16 04:44:22;;;;;;;9.37;5.20;;;14.90;98.30;;;;;;5124182;23;20509;-83
2021/06/16 04:46:27;;;;;;;5.50;5.00;;;15.00;98.30;;;;;;5115875;23;20432;-83
2021/06/16 04:48:30;;;;;;;6.60;4.70;;;15.00;98.30;;;;;;5115720;23;20488;-82
2021/06/16 04:50:33;;;;;;;6.50;4.73;;;14.90;98.30;;;;;;5115697;23;20510;-83
2021/06/16 04:52:36;;;;;;;8.93;5.37;;;15.00;98.30;;;;;;5123796;23;20509;-83
2021/06/16 04:54:39;;;;;;;7.13;4.50;;;15.10;98.30;;;;;;5123966;23;20432;-83
2021/06/16 04:56:42;;;;;;;6.03;4.63;;;15.30;98.30;;;;;;5123850;23;20462;-82
2021/06/16 04:58:45;;;;;;;5.83;4.83;;;15.30;98.30;;;;;;5123137;23;20421;-83
2021/06/16 05:00:49;;;;;;;6.30;4.70;;;15.30;98.30;;;;;;5115574;23;20430;-83
2021/06/16 05:02:54;;;;;;;6.30;5.50;;;15.40;98.30;;;;;;5115985;23;20430;-83
2021/06/16 05:04:57;;;;;;;6.83;5.00;;;15.50;98.30;;;;;;5123804;23;20481;-83
2021/06/16 05:07:00;;;;;;;8.30;4.90;;;15.60;98.30;;;;;;5123718;23;20472;-83
2021/06/16 05:09:04;;;;;;;6.50;4.90;;;15.50;98.30;;;;;;5115382;23;20755;-83
2021/06/16 05:11:07;;;;;;;6.53;5.00;;;15.50;98.30;;;;;;5115484;23;20513;-83
2021/06/16 05:13:10;;;;;;;6.83;4.90;;;15.70;98.30;;;;;;5124202;23;20804;-83
2021/06/16 05:15:15;;;;;;;8.83;5.57;;;15.80;98.30;;;;;;5115693;23;20752;-83
2021/06/16 05:17:18;;;;;;;9.43;6.33;;;15.70;98.30;;;;;;5115352;23;20955;-83
2021/06/16 05:19:23;;;;;;;8.70;5.20;;;15.70;98.30;;;;;;5123619;23;20430;-83
2021/06/16 05:21:28;;;;;;;7.13;5.27;;;15.80;98.30;;;;;;5115964;23;20493;-83
2021/06/16 05:23:31;;;;;;;9.03;5.27;;;15.90;98.30;;;;;;5123854;23;20497;-83
2021/06/16 05:25:35;;;;;;;9.53;4.97;;;15.80;98.30;;;;;;5115860;23;20456;-83
2021/06/16 05:27:39;;;;;;;10.00;5.83;;;15.80;98.30;;;;;;5115114;23;20500;-83
2021/06/16 05:29:42;;;;;;;11.70;5.83;;;15.90;98.30;;;;;;5116076;23;20493;-82
2021/06/16 05:31:45;;;;;;;6.80;5.40;;;16.00;98.30;;;;;;5116076;23;20460;-82
2021/06/16 05:33:48;;;;;;;7.57;4.93;;;16.10;98.30;;;;;;5115707;23;20465;-83
2021/06/16 05:35:52;;;;;;;13.43;5.77;;;16.10;98.30;;;;;;5124267;23;20446;-83
2021/06/16 05:37:55;;;;;;;9.53;5.67;;;16.20;98.30;;;;;;5123986;23;20528;-83
2021/06/16 05:39:58;;;;;;;10.60;4.90;;;16.20;98.30;;;;;;5116027;23;20517;-83
2021/06/16 05:42:02;;;;;;;8.30;5.57;;;16.20;98.30;;;;;;5115602;23;20484;-83
2021/06/16 05:44:05;;;;;;;5.73;4.80;;;16.30;98.30;;;;;;5124746;23;20422;-83
2021/06/16 05:46:09;;;;;;;6.20;5.57;;;16.20;98.30;;;;;;5124272;23;20452;-83
2021/06/16 05:48:12;;;;;;;6.97;6.20;;;16.40;98.30;;;;;;5115920;23;20775;-83
2021/06/16 05:50:16;;;;;;;7.13;4.87;;;16.30;98.30;;;;;;5117694;23;20497;-83
2021/06/16 05:52:20;;;;;;;7.53;6.03;;;16.30;98.30;;;;;;5120514;23;20433;-83
2021/06/16 05:54:23;;;;;;;7.30;4.40;;;16.40;98.30;;;;;;5129351;23;20934;-83
2021/06/16 05:56:26;;;;;;;7.23;4.90;;;16.60;98.30;;;;;;5127498;23;20442;-83
2021/06/16 05:58:29;;;;;;;6.37;5.00;;;16.60;98.30;;;;;;5116312;23;20489;-83
2021/06/16 06:00:32;;;;;;;8.33;4.50;;;16.60;98.30;;;;;;5116336;23;20434;-83
2021/06/16 06:02:35;;;;;;;11.60;5.53;;;16.70;98.30;;;;;;5124495;23;20449;-83
2021/06/16 06:04:39;;;;;;;5.70;5.10;;;16.70;98.30;;;;;;5123965;23;20453;-83
2021/06/16 06:06:42;;;;;;;6.07;4.50;;;16.80;98.30;;;;;;5116489;23;20432;-83
2021/06/16 06:08:47;;;;;;;6.83;4.37;;;17.00;98.30;;;;;;5116746;23;20457;-83
2021/06/16 06:10:50;;;;;;;5.17;4.60;;;17.10;98.30;;;;;;5119498;23;20463;-84
2021/06/16 06:12:55;;;;;;;4.40;4.00;;;17.20;98.30;;;;;;5128377;23;20461;-84
2021/06/16 06:14:58;;;;;;;10.30;4.57;;;17.30;98.30;;;;;;5126956;23;20488;-83
2021/06/16 06:17:01;;;;;;;9.97;5.30;;;17.20;98.30;;;;;;5116723;23;20445;-83
2021/06/16 06:19:05;;;;;;;9.17;4.43;;;17.30;98.30;;;;;;5123387;23;20436;-83
2021/06/16 06:21:08;;;;;;;5.73;4.47;;;17.30;98.30;;;;;;5124087;23;20508;-83
2021/06/16 06:23:11;;;;;;;8.40;4.20;;;17.40;98.30;;;;;;5124043;23;20508;-83
2021/06/16 06:25:15;;;;;;;10.47;4.80;;;17.50;98.30;;;;;;5124480;23;20461;-84
2021/06/16 06:27:18;;;;;;;8.13;4.40;;;17.60;98.30;;;;;;5115993;23;20768;-84
2021/06/16 06:29:22;;;;;;;6.10;3.77;;;17.70;98.30;;;;;;5125166;23;20429;-83
2021/06/16 06:31:25;;;;;;;6.43;4.20;;;17.60;98.30;;;;;;5125532;23;20428;-83
2021/06/16 06:33:28;;;;;;;6.57;3.83;;;17.70;98.30;;;;;;5118232;23;20907;-83
2021/06/16 06:35:31;;;;;;;4.67;3.93;;;17.80;98.30;;;;;;5125536;23;20421;-84
2021/06/16 06:37:34;;;;;;;8.13;4.50;;;17.90;98.30;;;;;;5116799;23;21198;-84
2021/06/16 06:39:37;;;;;;;6.77;4.03;;;18.00;98.30;;;;;;5125534;23;20425;-84
2021/06/16 06:41:42;;;;;;;5.70;4.20;;;18.10;98.30;;;;;;5125097;23;20432;-85
2021/06/16 06:43:45;;;;;;;6.90;4.20;;;18.10;98.30;;;;;;5117024;23;20520;-84
2021/06/16 06:45:48;;;;;;;5.03;3.80;;;18.10;98.30;;;;;;5125320;23;20422;-85
2021/06/16 06:47:51;;;;;;;6.53;3.80;;;18.10;98.30;;;;;;5125340;23;20853;-83
2021/06/16 06:49:54;;;;;;;9.50;4.53;;;18.30;98.30;;;;;;5116939;23;20429;-83
2021/06/16 06:51:57;;;;;;;9.33;4.20;;;18.30;98.30;;;;;;5117601;23;20512;-82
2021/06/16 06:54:00;;;;;;;6.53;4.17;;;18.40;98.30;;;;;;5125401;23;20516;-82
2021/06/16 06:56:03;;;;;;;4.93;4.20;;;18.40;98.30;;;;;;5117616;23;20513;-83
2021/06/16 06:58:07;;;;;;;6.90;4.07;;;18.60;98.30;;;;;;5125199;23;20457;-82
2021/06/16 07:00:12;;;;;;;8.70;4.17;;;18.60;98.30;;;;;;5126607;23;20432;-83
2021/06/16 07:02:16;;;;;;;6.57;4.00;;;18.80;98.10;;;;;;5118962;23;20406;-82
2021/06/16 07:04:19;;;;;;;7.63;3.83;;;18.80;98.00;;;;;;5126162;23;20497;-83
2021/06/16 07:06:23;;;;;;;4.00;3.60;;;18.90;98.20;;;;;;5126417;23;20650;-83
2021/06/16 07:08:26;;;;;;;6.80;4.33;;;19.10;97.20;;;;;;5124322;23;20456;-83
2021/06/16 07:10:29;;;;;;;6.40;3.50;;;19.10;96.50;;;;;;5118280;23;20437;-83
2021/06/16 07:12:32;;;;;;;8.80;3.97;;;19.20;96.70;;;;;;5125928;23;20765;-83
2021/06/16 07:14:39;;;;;;;6.53;3.90;;;19.20;96.70;;;;;;5126021;23;20484;-83
2021/06/16 07:16:42;;;;;;;5.50;4.20;;;19.30;96.20;;;;;;5125974;23;20497;-83
2021/06/16 07:18:46;;;;;;;10.03;4.63;;;19.30;96.30;;;;;;5117508;23;20457;-83
2021/06/16 07:20:51;;;;;;;7.00;4.00;;;19.40;96.40;;;;;;5126212;23;20441;-82
2021/06/16 07:22:55;;;;;;;6.27;3.90;;;19.50;95.60;;;;;;5126628;23;20746;-83
2021/06/16 07:24:58;;;;;;;7.90;4.07;;;19.50;94.60;;;;;;5117782;23;20702;-83
2021/06/16 07:27:01;;;;;;;7.40;4.63;;;19.50;94.40;;;;;;5125128;23;20414;-83
2021/06/16 07:29:05;;;;;;;5.73;3.60;;;19.50;95.20;;;;;;5117492;23;20738;-83
2021/06/16 07:31:10;;;;;;;7.40;3.57;;;19.70;94.80;;;;;;5117249;23;20462;-83
2021/06/16 07:33:13;;;;;;;8.03;3.90;;;19.70;95.00;;;;;;5125845;23;20428;-83
2021/06/16 07:35:17;;;;;;;7.60;3.77;;;19.70;95.10;;;;;;5125849;23;20953;-83
2021/06/16 07:37:20;;;;;;;3.83;3.43;;;19.80;95.00;;;;;;5116785;23;21038;-83
2021/06/16 07:39:23;;;;;;;6.80;3.60;;;19.80;94.20;;;;;;5124519;23;20509;-83
2021/06/16 07:41:26;;;;;;;5.00;4.10;;;20.00;94.30;;;;;;5125976;23;20422;-83
2021/06/16 07:43:29;;;;;;;4.57;3.67;;;20.10;93.20;;;;;;5116988;23;20465;-83
2021/06/16 07:45:32;;;;;;;8.00;3.73;;;20.20;92.30;;;;;;5117234;23;20434;-83
2021/06/16 07:47:36;;;;;;;6.47;3.80;;;20.20;92.70;;;;;;5125342;23;20442;-83
2021/06/16 07:49:40;;;;;;;6.27;3.50;;;20.30;91.40;;;;;;5117142;23;20440;-83
2021/06/16 07:51:43;;;;;;;4.07;3.67;;;20.30;91.90;;;;;;5125104;23;20418;-83
2021/06/16 07:53:46;;;;;;;10.47;3.80;;;20.20;91.60;;;;;;5125483;23;21028;-83
2021/06/16 07:55:48;;;;;;;4.43;3.40;;;20.40;92.40;;;;;;5116820;23;20869;-83
2021/06/16 07:57:51;;;;;;;6.40;3.93;;;20.50;91.40;;;;;;5116578;23;20481;-82
2021/06/16 07:59:54;;;;;;;7.87;3.23;;;20.50;90.50;;;;;;5124853;23;20493;-83
2021/06/16 08:01:58;;;;;;;12.43;3.97;;;20.40;90.30;;;;;;5124906;23;20449;-82
2021/06/16 08:04:02;;;;;;;4.50;3.63;;;20.50;89.30;;;;;;5117241;23;20429;-83
2021/06/16 08:06:05;;;;;;;6.57;3.43;;;20.60;89.20;;;;;;5124634;23;20445;-83
2021/06/16 08:19:21;;;;;;;5.90;3.30;;;21.00;86.10;;;;;;5148667;22;20470;-81
2021/06/16 08:21:24;;;;;;;8.53;3.80;;;21.00;84.10;;;;;;5164849;23;20432;-84
2021/06/16 08:23:27;;;;;;;3.53;3.23;;;21.10;83.20;;;;;;5174068;23;20430;-82
2021/06/16 08:25:30;;;;;;;6.83;3.80;;;21.20;82.70;;;;;;5175031;22;20506;-81
2021/06/16 08:27:33;;;;;;;4.80;3.13;;;21.20;83.90;;;;;;5174407;22;20420;-82
2021/06/16 08:29:37;;;;;;;5.60;2.97;;;21.30;84.40;;;;;;5175280;22;20428;-81
2021/06/16 08:31:40;;;;;;;4.27;3.20;;;21.40;84.20;;;;;;5174211;22;20424;-81
2021/06/16 08:33:43;;;;;;;4.80;3.60;;;21.40;84.70;;;;;;5174508;22;20792;-82
2021/06/16 08:35:48;;;;;;;6.60;4.03;;;21.50;84.60;;;;;;5165895;23;20431;-81
2021/06/16 08:37:51;;;;;;;4.03;3.43;;;21.40;84.70;;;;;;5173833;22;20451;-81
2021/06/16 08:39:53;;;;;;;10.77;4.23;;;21.50;84.70;;;;;;5174846;23;20466;-82
2021/06/16 08:41:57;;;;;;;5.73;3.10;;;21.60;84.60;;;;;;5166130;23;20915;-82
2021/06/16 08:44:00;;;;;;;8.50;3.60;;;21.80;83.50;;;;;;5165809;23;20424;-82
2021/06/16 08:46:07;;;;;;;5.20;4.00;;;21.80;83.80;;;;;;5174231;22;20431;-81
2021/06/16 08:48:10;;;;;;;6.20;3.23;;;21.80;84.10;;;;;;5174248;22;20439;-82
2021/06/16 08:50:15;;;;;;;6.20;3.37;;;22.00;84.70;;;;;;5174594;22;20511;-81
2021/06/16 08:52:19;;;;;;;9.23;3.90;;;22.10;84.20;;;;;;5173759;23;20427;-82
2021/06/16 08:54:22;;;;;;;7.10;3.97;;;22.00;83.30;;;;;;5174448;22;20434;-82
2021/06/16 08:56:25;;;;;;;5.50;3.30;;;22.00;83.00;;;;;;5174359;23;20423;-82
2021/06/16 08:58:29;;;;;;;4.00;2.97;;;22.10;83.10;;;;;;5174262;22;20858;-82
2021/06/16 09:00:32;;;;;;;9.50;3.80;;;22.10;81.80;;;;;;5174570;23;20424;-82
2021/06/16 09:02:35;;;;;;;5.87;3.60;;;22.10;82.60;;;;;;5174720;23;20880;-81
2021/06/16 09:04:47;;;;;;;7.40;3.40;;;22.30;81.10;;;;;;5173895;22;20430;-82
2021/06/16 09:06:50;;;;;;;5.80;3.50;;;22.30;80.30;;;;;;5174726;22;20519;-81
2021/06/16 09:08:57;;;;;;;4.07;3.20;;;22.40;79.20;;;;;;5173584;22;20444;-82
2021/06/16 09:11:00;;;;;;;5.30;3.33;;;22.30;79.70;;;;;;5174215;22;20754;-81
2021/06/16 09:13:08;;;;;;;7.73;5.00;;;22.50;80.00;;;;;;5165591;23;20825;-82
2021/06/16 09:15:16;;;;;;;4.57;3.83;;;22.60;80.30;;;;;;5173903;22;20411;-82
2021/06/16 09:17:21;;;;;;;7.83;3.60;;;22.60;79.50;;;;;;5173196;22;20400;-81
2021/06/16 09:19:25;;;;;;;5.47;3.13;;;22.60;79.10;;;;;;5165032;23;20443;-81
2021/06/16 09:21:34;;;;;;;7.33;3.33;;;22.80;79.30;;;;;;5165759;23;20424;-81
2021/06/16 09:23:41;;;;;;;7.20;3.17;;;22.60;79.60;;;;;;5174169;23;20752;-81
2021/06/16 09:26:07;;;;;;;5.13;3.40;;;22.70;80.20;;;;;;5165197;23;21104;-82
2021/06/16 09:28:10;;;;;;;4.87;3.53;;;22.90;79.30;;;;;;5173055;22;20534;-82
2021/06/16 09:30:32;;;;;;;3.27;2.97;;;23.00;79.60;;;;;;5173806;22;20432;-82
2021/06/16 09:32:43;;;;;;;7.33;3.37;;;22.80;78.80;;;;;;5165527;23;20418;-81
2021/06/16 09:34:46;;;;;;;5.03;3.33;;;22.90;79.90;;;;;;5173881;22;20404;-81
2021/06/16 09:36:51;;;;;;;4.73;3.40;;;23.10;79.00;;;;;;5164930;23;20435;-82
2021/06/16 09:38:54;;;;;;;5.90;3.27;;;23.30;78.90;;;;;;5173226;22;20444;-82
2021/06/16 09:41:00;;;;;;;6.07;4.50;;;23.20;79.50;;;;;;5164983;23;20980;-82
2021/06/16 09:43:06;;;;;;;11.23;4.17;;;23.10;79.90;;;;;;5164897;23;20840;-82
2021/06/16 09:45:10;;;;;;;7.47;3.93;;;23.30;79.90;;;;;;5165250;23;20435;-82
2021/06/16 09:47:18;;;;;;;6.70;3.70;;;23.30;80.00;;;;;;5165445;23;20516;-82
2021/06/16 09:49:49;;;;;;;5.50;3.67;;;23.40;80.90;;;;;;5173361;23;20734;-82
2021/06/16 09:51:52;;;;;;;4.40;4.00;;;23.90;80.80;;;;;;5165091;23;21035;-81
2021/06/16 09:54:02;;;;;;;5.77;3.53;;;24.00;79.60;;;;;;5165548;23;20953;-82
2021/06/16 09:56:16;;;;;;;5.03;3.40;;;23.90;77.90;;;;;;5165082;23;20444;-81
2021/06/16 09:58:19;;;;;;;4.13;3.70;;;23.80;78.40;;;;;;5164765;22;21307;-82
2021/06/16 10:00:28;;;;;;;5.37;3.40;;;23.70;78.70;;;;;;5164973;23;20459;-82
2021/06/16 10:02:31;;;;;;;5.97;4.10;;;23.70;79.20;;;;;;5165197;23;20412;-81
2021/06/16 10:04:42;;;;;;;5.40;3.37;;;23.60;79.20;;;;;;5166835;23;20424;-82
2021/06/16 10:06:45;;;;;;;5.80;3.60;;;23.90;79.00;;;;;;5175311;23;20422;-82
2021/06/16 10:08:50;;;;;;;5.90;4.00;;;24.00;79.10;;;;;;5174572;22;20443;-82
2021/06/16 10:10:53;;;;;;;7.30;3.90;;;24.30;79.00;;;;;;5166844;23;20438;-82
2021/06/16 10:12:57;;;;;;;8.00;3.70;;;24.30;78.60;;;;;;5175204;22;20427;-82
2021/06/16 10:15:02;;;;;;;5.30;3.40;;;24.40;79.00;;;;;;5167064;23;20424;-82
2021/06/16 10:17:04;;;;;;;9.03;3.90;;;24.60;79.60;;;;;;5175483;23;20424;-82
2021/06/16 10:19:07;;;;;;;6.30;3.90;;;24.50;77.40;;;;;;5165857;22;20866;-82
2021/06/16 10:21:12;;;;;;;4.30;3.43;;;24.20;78.10;;;;;;5175078;23;20892;-82
2021/06/16 10:23:16;;;;;;;8.27;4.20;;;24.40;78.90;;;;;;5166577;23;20423;-82
2021/06/16 10:25:21;;;;;;;4.83;3.40;;;24.70;78.80;;;;;;5175361;23;20443;-82
2021/06/16 10:27:29;;;;;;;9.50;3.43;;;24.90;78.10;;;;;;5166619;22;20427;-82
2021/06/16 10:29:39;;;;;;;3.87;3.43;;;24.90;77.50;;;;;;5166497;23;20431;-81
2021/06/16 10:31:44;;;;;;;4.10;3.70;;;24.90;77.30;;;;;;5166381;23;20411;-82
2021/06/16 10:33:58;;;;;;;6.70;3.57;;;24.90;77.40;;;;;;5174804;23;20411;-82
2021/06/16 10:36:13;;;;;;;7.73;3.50;;;24.70;77.70;;;;;;5165496;23;20434;-82
2021/06/16 10:38:18;;;;;;;5.90;4.03;;;24.80;77.30;;;;;;5166035;22;20478;-82
2021/06/16 10:40:31;;;;;;;7.13;3.63;;;24.70;77.30;;;;;;5174841;23;20412;-82
2021/06/16 10:43:09;;;;;;;4.17;3.50;;;24.70;76.70;;;;;;5174753;23;20515;-81
2021/06/16 10:45:21;;;;;;;4.27;3.57;;;24.80;77.50;;;;;;5166337;23;20900;-82
2021/06/16 10:47:56;;;;;;;7.10;3.50;;;24.80;77.30;;;;;;5166164;22;20416;-82
2021/06/16 10:49:59;;;;;;;5.37;3.90;;;25.10;77.20;;;;;;5167363;23;20949;-82
2021/06/16 10:52:02;;;;;;;4.60;3.40;;;25.20;76.40;;;;;;5166198;23;20865;-82
2021/06/16 10:54:28;;;;;;;6.47;3.50;;;25.30;76.40;;;;;;5174485;23;20411;-82
2021/06/16 10:56:42;;;;;;;7.13;3.67;;;25.90;76.80;;;;;;5159175;23;20507;-82
2021/06/16 10:58:46;;;;;;;5.20;3.53;;;26.20;75.00;;;;;;5173888;22;20457;-82
2021/06/16 11:01:12;;;;;;;4.13;3.10;;;26.00;74.20;;;;;;5174897;23;20522;-82